Ashland, West Virginia
Current Conditions -  °F | °C
As of 4:52 AM on Sunday 25 Jan 2015 (Local Time) from KBLF Reporting Station
Haze Haze  
Wind Chill: 24°   Ceiling: 2600
Heat Index: 30°   Visibility: 6mi
Dew Point: 26°   Wind: 6mph
Humidity: 85%   Direction: 250°WSW
Pressure: 29.79"   Gusts: NA
Location:  37.3807°N, 81.4099°W
Report Text: KBLF 250952Z AUTO 25005KT 6SM BR OVC026 M01/M03 A2979 RMK AO2 SLP103 T10111033
Loading
Personal Weather Stations






























Interactive Weather Map New forecast layout! Learn more

10-Day Weather Forecast

Advertisements
Track Severe Weather on mobile